createdAt,value
2022-09-20T00:00:13.723Z,22.80
2022-09-20T00:02:40.535Z,22.80
2022-09-20T00:05:08.416Z,22.70
2022-09-20T00:07:35.432Z,22.70
2022-09-20T00:10:02.193Z,22.70
2022-09-20T00:12:29.878Z,22.70
2022-09-20T00:14:56.687Z,22.70
2022-09-20T00:17:23.426Z,22.70
2022-09-20T00:19:50.138Z,22.70
2022-09-20T00:22:16.871Z,22.70
2022-09-20T00:24:48.789Z,22.80
2022-09-20T00:27:15.780Z,22.80
2022-09-20T00:29:42.565Z,22.80
2022-09-20T00:32:09.342Z,22.90
2022-09-20T00:34:54.935Z,22.90
2022-09-20T00:37:21.736Z,22.90
2022-09-20T00:39:48.449Z,22.90
2022-09-20T00:42:15.710Z,22.90
2022-09-20T00:44:57.272Z,22.80
2022-09-20T00:47:30.177Z,22.80
2022-09-20T00:50:20.482Z,22.70
2022-09-20T00:52:50.103Z,22.60
2022-09-20T00:55:18.478Z,22.60
2022-09-20T00:57:45.981Z,22.60
2022-09-20T01:00:14.257Z,22.60
2022-09-20T01:02:46.808Z,22.60
2022-09-20T01:05:15.521Z,22.60
2022-09-20T01:07:43.685Z,22.70
2022-09-20T01:10:10.423Z,22.70
2022-09-20T01:12:40.315Z,22.70
2022-09-20T01:15:09.533Z,22.70
2022-09-20T01:17:38.928Z,22.70
2022-09-20T01:20:14.587Z,22.80
2022-09-20T01:22:53.594Z,22.80
2022-09-20T01:26:04.828Z,22.80
2022-09-20T01:28:32.214Z,22.70
2022-09-20T01:31:04.695Z,22.70
2022-09-20T01:33:55.900Z,22.60
2022-09-20T01:36:48.722Z,22.60
2022-09-20T01:39:58.674Z,22.60
2022-09-20T01:42:36.090Z,22.60
2022-09-20T01:45:11.813Z,22.70
2022-09-20T01:47:42.764Z,22.70
2022-09-20T01:50:20.364Z,22.70
2022-09-20T01:53:06.638Z,22.80
2022-09-20T01:55:56.795Z,22.80
2022-09-20T01:59:19.858Z,22.80
2022-09-20T02:02:24.325Z,22.90
2022-09-20T02:05:12.834Z,22.90
2022-09-20T02:07:58.902Z,22.80
2022-09-20T02:10:58.038Z,22.80
2022-09-20T02:13:39.826Z,22.80
2022-09-20T02:16:16.661Z,22.70
2022-09-20T02:19:02.257Z,22.70
2022-09-20T02:21:40.745Z,22.70
2022-09-20T02:24:38.378Z,22.70
2022-09-20T02:27:32.940Z,22.70
2022-09-20T02:30:44.230Z,22.70
2022-09-20T02:33:27.434Z,22.80
2022-09-20T02:36:14.584Z,22.80
2022-09-20T02:38:59.573Z,22.80
2022-09-20T02:41:44.417Z,22.90
2022-09-20T02:44:32.976Z,22.90
2022-09-20T02:47:09.501Z,22.90
2022-09-20T02:49:41.329Z,22.90
2022-09-20T02:52:42.133Z,22.90
2022-09-20T02:55:28.639Z,22.80
2022-09-20T02:58:16.248Z,22.80
2022-09-20T03:01:06.688Z,22.80
2022-09-20T03:04:08.554Z,22.80
2022-09-20T03:06:50.944Z,22.70
2022-09-20T03:09:38.272Z,22.70
2022-09-20T03:12:28.256Z,22.70
2022-09-20T03:15:25.016Z,22.80
2022-09-20T03:18:07.610Z,22.80
2022-09-20T03:21:10.208Z,22.80
2022-09-20T03:24:14.723Z,22.80
2022-09-20T03:26:52.906Z,22.90
2022-09-20T03:29:51.606Z,22.80
2022-09-20T03:32:26.925Z,22.80
2022-09-20T03:35:13.117Z,22.70
2022-09-20T03:37:59.597Z,22.70
2022-09-20T03:41:13.606Z,22.60
2022-09-20T03:44:03.143Z,22.60
2022-09-20T03:46:43.467Z,22.60
2022-09-20T03:49:37.782Z,22.60
2022-09-20T03:52:16.719Z,22.60
2022-09-20T03:55:03.960Z,22.60
2022-09-20T03:57:59.428Z,22.60
2022-09-20T04:00:53.887Z,22.70
2022-09-20T04:03:38.730Z,22.70
2022-09-20T04:06:40.162Z,22.70
2022-09-20T04:09:20.651Z,22.70
2022-09-20T04:11:56.266Z,22.70
2022-09-20T04:14:23.290Z,22.70
2022-09-20T04:17:01.681Z,22.60
2022-09-20T04:19:38.708Z,22.60
2022-09-20T04:22:07.451Z,22.50
2022-09-20T04:24:55.667Z,22.50
2022-09-20T04:27:40.559Z,22.50
2022-09-20T04:30:22.615Z,22.40
2022-09-20T04:33:18.463Z,22.40
2022-09-20T04:36:12.594Z,22.50
2022-09-20T04:38:39.770Z,22.50
2022-09-20T04:41:39.359Z,22.60
2022-09-20T04:44:25.009Z,22.60
2022-09-20T04:47:00.384Z,22.60
2022-09-20T04:50:06.181Z,22.60
2022-09-20T04:52:57.537Z,22.60
2022-09-20T04:55:50.371Z,22.60
2022-09-20T04:58:36.238Z,22.60
2022-09-20T05:01:33.089Z,22.50
2022-09-20T05:04:18.366Z,22.50
2022-09-20T05:07:09.504Z,22.50
2022-09-20T05:10:07.122Z,22.40
2022-09-20T05:12:53.474Z,22.40
2022-09-20T05:15:46.567Z,22.40
2022-09-20T05:18:37.519Z,22.40
2022-09-20T05:21:37.372Z,22.50
2022-09-20T05:24:28.776Z,22.50
2022-09-20T05:27:27.059Z,22.50
2022-09-20T05:30:16.358Z,22.50
2022-09-20T05:33:27.886Z,22.60
2022-09-20T05:36:17.322Z,22.60
2022-09-20T05:38:47.809Z,22.60
2022-09-20T05:41:36.956Z,22.60
2022-09-20T05:44:18.683Z,22.70
2022-09-20T05:47:18.285Z,22.70
2022-09-20T05:50:04.265Z,22.80
2022-09-20T05:52:51.824Z,22.70
2022-09-20T05:55:24.862Z,22.70
2022-09-20T05:58:17.460Z,22.70
2022-09-20T06:00:59.079Z,22.70
2022-09-20T06:04:01.053Z,22.70
2022-09-20T06:06:47.396Z,22.60
2022-09-20T06:09:17.224Z,22.60
2022-09-20T06:12:14.413Z,22.60
2022-09-20T06:15:21.524Z,22.60
2022-09-20T06:18:20.393Z,22.60
2022-09-20T06:20:52.594Z,22.70
2022-09-20T06:23:21.345Z,22.70
2022-09-20T06:25:48.053Z,22.70
2022-09-20T06:28:21.156Z,22.80
2022-09-20T06:30:53.665Z,22.80
2022-09-20T06:33:25.756Z,22.80
2022-09-20T06:35:59.263Z,22.80
2022-09-20T06:39:03.237Z,22.70
2022-09-20T06:41:34.491Z,22.70
2022-09-20T06:44:02.152Z,22.60
2022-09-20T06:46:34.318Z,22.60
2022-09-20T06:49:01.764Z,22.60
2022-09-20T06:51:34.867Z,22.50
2022-09-20T06:54:02.402Z,22.50
2022-09-20T06:56:32.793Z,22.50
2022-09-20T06:58:59.574Z,22.60
2022-09-20T07:01:30.446Z,22.60
2022-09-20T07:03:58.713Z,22.70
2022-09-20T07:06:25.589Z,22.70
2022-09-20T07:08:52.461Z,22.80
2022-09-20T07:11:19.525Z,22.80
2022-09-20T07:13:51.527Z,22.80
2022-09-20T07:16:18.398Z,22.80
2022-09-20T07:18:45.677Z,22.80
2022-09-20T07:21:14.918Z,22.80
2022-09-20T07:23:41.714Z,22.80
2022-09-20T07:26:17.446Z,22.70
2022-09-20T07:28:44.196Z,22.70
2022-09-20T07:31:10.979Z,22.70
2022-09-20T07:33:37.737Z,22.70
2022-09-20T07:36:04.783Z,22.70
2022-09-20T07:38:31.521Z,22.70
2022-09-20T07:41:00.683Z,22.70
2022-09-20T07:43:29.955Z,22.70
2022-09-20T07:45:58.007Z,22.70
2022-09-20T07:48:34.236Z,22.80
2022-09-20T07:51:08.697Z,22.80
2022-09-20T07:53:37.004Z,22.90
2022-09-20T07:56:18.129Z,22.90
2022-09-20T07:58:48.681Z,22.90
2022-09-20T08:01:20.995Z,22.80
2022-09-20T08:03:47.953Z,22.80
2022-09-20T08:06:16.009Z,22.70
2022-09-20T08:08:43.404Z,22.70
2022-09-20T08:11:19.144Z,22.60
2022-09-20T08:16:43.137Z,22.60
2022-09-20T08:19:21.633Z,22.60
2022-09-20T08:21:49.966Z,22.60
2022-09-20T08:24:17.160Z,22.60
2022-09-20T08:26:44.168Z,22.60
2022-09-20T08:29:12.132Z,22.70
2022-09-20T08:31:42.216Z,22.70
2022-09-20T08:34:11.627Z,22.80
2022-09-20T08:36:46.242Z,22.80
2022-09-20T08:42:36.649Z,22.80
2022-09-20T08:45:21.883Z,22.80
2022-09-20T08:47:58.901Z,22.80
2022-09-20T08:50:26.914Z,22.90
2022-09-20T08:53:00.229Z,22.90
2022-09-20T08:55:36.397Z,22.90
2022-09-20T08:58:08.143Z,23.00
2022-09-20T09:00:37.486Z,23.00
2022-09-20T09:03:12.979Z,23.00
2022-09-20T09:05:46.455Z,23.10
2022-09-20T09:08:23.998Z,23.10
2022-09-20T09:10:54.096Z,23.20
2022-09-20T09:13:30.025Z,23.20
2022-09-20T09:16:25.866Z,23.30
2022-09-20T09:18:57.731Z,23.40
2022-09-20T09:21:27.127Z,23.40
2022-09-20T09:24:04.698Z,23.40
2022-09-20T09:26:40.011Z,23.50
2022-09-20T09:29:15.717Z,23.50
2022-09-20T09:31:45.044Z,23.60
2022-09-20T09:34:33.419Z,23.60
2022-09-20T09:37:00.472Z,23.70
2022-09-20T09:39:38.061Z,23.70
2022-09-20T09:42:31.666Z,23.80
2022-09-20T09:45:13.010Z,23.80
2022-09-20T09:47:39.825Z,23.90
2022-09-20T09:50:20.635Z,23.90
2022-09-20T09:53:08.921Z,24.00
2022-09-20T09:56:05.730Z,24.00
2022-09-20T09:58:44.017Z,24.00
2022-09-20T10:01:33.575Z,24.10
2022-09-20T10:04:15.689Z,24.10
2022-09-20T10:07:17.641Z,24.00
2022-09-20T10:09:59.410Z,24.00
2022-09-20T10:13:15.038Z,24.00
2022-09-20T10:15:53.587Z,23.90
2022-09-20T10:18:43.888Z,23.80
2022-09-20T10:21:41.249Z,23.80
2022-09-20T10:24:17.610Z,23.80
2022-09-20T10:27:30.399Z,23.80
2022-09-20T10:30:15.313Z,23.80
2022-09-20T10:32:59.852Z,23.80
2022-09-20T10:35:35.786Z,23.80
2022-09-20T10:38:08.302Z,23.80
2022-09-20T10:41:11.114Z,23.80
2022-09-20T10:44:05.974Z,23.80
2022-09-20T10:46:51.610Z,23.80
2022-09-20T10:49:46.098Z,23.80
2022-09-20T10:52:38.303Z,23.70
2022-09-20T10:55:09.043Z,23.70
2022-09-20T10:57:55.584Z,23.60
2022-09-20T11:00:31.294Z,23.60
2022-09-20T11:03:04.279Z,23.50
2022-09-20T11:06:10.090Z,23.50
2022-09-20T11:08:38.242Z,23.40
2022-09-20T11:11:10.554Z,23.30
2022-09-20T11:13:59.649Z,23.30
2022-09-20T11:16:35.344Z,23.20
2022-09-20T11:19:10.901Z,23.20
2022-09-20T11:21:49.615Z,23.20
2022-09-20T11:24:37.597Z,23.10
2022-09-20T11:27:07.349Z,23.10
2022-09-20T11:29:42.198Z,23.10
2022-09-20T11:32:17.390Z,23.10
2022-09-20T11:34:56.970Z,23.00
2022-09-20T11:37:30.011Z,23.00
2022-09-20T11:40:01.711Z,23.00
2022-09-20T11:42:34.715Z,23.10
2022-09-20T11:45:01.692Z,23.10
2022-09-20T11:47:53.883Z,23.20
2022-09-20T11:50:50.100Z,23.20
2022-09-20T11:53:25.713Z,23.30
2022-09-20T11:55:59.017Z,23.40
2022-09-20T11:58:27.266Z,23.50
2022-09-20T12:00:56.816Z,23.40
2022-09-20T12:03:38.062Z,23.40
2022-09-20T12:06:09.146Z,23.40
2022-09-20T12:08:39.247Z,23.40
2022-09-20T12:11:12.194Z,23.40
2022-09-20T12:13:41.969Z,23.40
2022-09-20T12:16:16.170Z,23.30
2022-09-20T12:19:01.144Z,23.30
2022-09-20T12:21:28.232Z,23.20
2022-09-20T12:23:57.758Z,23.20
2022-09-20T12:26:27.442Z,23.20
2022-09-20T12:28:59.791Z,23.20
2022-09-20T12:31:29.511Z,23.10
2022-09-20T12:34:02.539Z,23.10
2022-09-20T12:36:42.447Z,23.10
2022-09-20T12:39:12.209Z,23.10
2022-09-20T12:41:55.608Z,23.00
2022-09-20T12:44:38.404Z,23.00
2022-09-20T12:47:11.499Z,23.00
2022-09-20T12:50:05.285Z,23.00
2022-09-20T12:52:50.391Z,23.00
2022-09-20T12:56:05.822Z,22.90
2022-09-20T12:59:00.557Z,22.90
2022-09-20T13:01:32.302Z,22.90
2022-09-20T13:04:37.766Z,22.90
2022-09-20T13:07:34.797Z,22.90
2022-09-20T13:10:03.525Z,23.00
2022-09-20T13:12:32.110Z,22.90
2022-09-20T13:15:02.898Z,22.90
2022-09-20T13:17:31.740Z,22.90
2022-09-20T13:19:59.556Z,22.90
2022-09-20T13:22:43.582Z,22.90
2022-09-20T13:25:16.245Z,22.90
2022-09-20T13:27:57.374Z,22.90
2022-09-20T13:30:27.076Z,22.90
2022-09-20T13:32:53.903Z,22.90
2022-09-20T13:35:29.394Z,22.90
2022-09-20T13:38:04.950Z,22.90
2022-09-20T13:40:42.451Z,22.90
2022-09-20T13:43:25.041Z,22.90
2022-09-20T13:45:57.899Z,22.90
2022-09-20T13:48:30.018Z,22.90
2022-09-20T13:50:57.869Z,22.90
2022-09-20T13:53:41.451Z,22.90
2022-09-20T13:56:28.476Z,22.90
2022-09-20T13:58:58.763Z,22.90
2022-09-20T14:01:34.688Z,22.90
2022-09-20T14:04:28.566Z,22.90
2022-09-20T14:06:58.437Z,22.90
2022-09-20T14:09:36.296Z,22.90
2022-09-20T14:12:05.589Z,22.90
2022-09-20T14:14:34.889Z,22.80
2022-09-20T14:17:06.239Z,22.80
2022-09-20T14:19:40.799Z,22.90
2022-09-20T14:22:11.410Z,22.80
2022-09-20T14:24:38.277Z,22.90
2022-09-20T14:27:19.461Z,22.80
2022-09-20T14:29:49.420Z,22.80
2022-09-20T14:32:16.455Z,22.80
2022-09-20T14:34:56.171Z,22.80
2022-09-20T14:37:26.386Z,22.80
2022-09-20T14:39:58.910Z,22.70
2022-09-20T14:42:30.950Z,22.70
2022-09-20T14:44:58.440Z,22.70
2022-09-20T14:47:37.378Z,22.70
2022-09-20T14:50:21.848Z,22.70
2022-09-20T14:53:00.368Z,22.70
2022-09-20T14:55:28.584Z,22.70
2022-09-20T14:58:01.124Z,22.70
2022-09-20T15:00:29.840Z,22.70
2022-09-20T15:03:04.472Z,22.70
2022-09-20T15:05:31.621Z,22.70
2022-09-20T15:07:59.419Z,22.60
2022-09-20T15:10:30.475Z,22.60
2022-09-20T15:12:57.467Z,22.60
2022-09-20T15:15:24.252Z,22.60
2022-09-20T15:17:51.102Z,22.60
2022-09-20T15:20:24.166Z,22.60
2022-09-20T15:22:51.522Z,22.60
2022-09-20T15:25:21.104Z,22.60
2022-09-20T15:27:50.818Z,22.60
2022-09-20T15:30:22.487Z,22.60
2022-09-20T15:32:51.226Z,22.60
2022-09-20T15:35:18.151Z,22.60
2022-09-20T15:37:45.236Z,22.60
2022-09-20T15:40:12.554Z,22.60
2022-09-20T15:42:41.626Z,22.60
2022-09-20T15:45:10.321Z,22.50
2022-09-20T15:47:38.514Z,22.60
2022-09-20T15:50:11.277Z,22.50
2022-09-20T15:52:46.836Z,22.50
2022-09-20T15:55:16.033Z,22.50
2022-09-20T15:57:43.996Z,22.50
2022-09-20T16:00:11.212Z,22.50
2022-09-20T16:02:40.657Z,22.50
2022-09-20T16:05:10.007Z,22.40
2022-09-20T16:07:37.065Z,22.50
2022-09-20T16:10:04.051Z,22.40
2022-09-20T16:12:30.956Z,22.40
2022-09-20T16:14:57.714Z,22.40
2022-09-20T16:17:44.465Z,22.40
2022-09-20T16:20:11.240Z,22.40
2022-09-20T16:22:38.249Z,22.40
2022-09-20T16:25:06.013Z,22.50
2022-09-20T16:27:34.835Z,22.40
2022-09-20T16:30:02.680Z,22.40
2022-09-20T16:32:29.833Z,22.40
2022-09-20T16:34:58.507Z,22.40
2022-09-20T16:37:27.201Z,22.40
2022-09-20T16:39:54.022Z,22.40
2022-09-20T16:42:20.973Z,22.40
2022-09-20T16:44:50.134Z,22.30
2022-09-20T16:47:24.776Z,22.30
2022-09-20T16:49:53.127Z,22.30
2022-09-20T16:52:20.258Z,22.30
2022-09-20T16:54:49.820Z,22.30
2022-09-20T16:57:16.686Z,22.30
2022-09-20T16:59:43.576Z,22.20
2022-09-20T17:02:12.317Z,22.30
2022-09-20T17:04:39.314Z,22.20
2022-09-20T17:07:06.197Z,22.20
2022-09-20T17:09:32.950Z,22.20
2022-09-20T17:12:00.205Z,22.20
2022-09-20T17:14:26.954Z,22.20
2022-09-20T17:16:53.786Z,22.20
2022-09-20T17:19:21.032Z,22.20
2022-09-20T17:21:50.635Z,22.20
2022-09-20T17:24:22.579Z,22.10
2022-09-20T17:26:51.011Z,22.20
2022-09-20T17:29:19.449Z,22.10
2022-09-20T17:31:54.082Z,22.10
2022-09-20T17:34:22.579Z,22.10
2022-09-20T17:36:50.709Z,22.10
2022-09-20T17:39:17.887Z,22.10
2022-09-20T17:41:47.245Z,22.10
2022-09-20T17:44:14.883Z,22.10
2022-09-20T17:46:45.975Z,22.10
2022-09-20T17:49:14.884Z,22.10
2022-09-20T17:51:47.157Z,22.10
2022-09-20T17:54:17.155Z,22.10
2022-09-20T17:56:48.785Z,22.10
2022-09-20T17:59:17.181Z,22.10
2022-09-20T18:01:47.331Z,22.10
2022-09-20T18:04:14.451Z,22.10
2022-09-20T18:06:45.841Z,22.10
2022-09-20T18:09:16.034Z,22.10
2022-09-20T18:11:46.294Z,22.20
2022-09-20T18:14:15.947Z,22.10
2022-09-20T18:16:44.239Z,22.10
2022-09-20T18:19:11.592Z,22.20
2022-09-20T18:21:40.743Z,22.10
2022-09-20T18:24:09.655Z,22.10
2022-09-20T18:26:37.010Z,22.10
2022-09-20T18:29:09.410Z,22.10
2022-09-20T18:31:57.743Z,22.10
2022-09-20T18:34:30.999Z,22.20
2022-09-20T18:36:59.784Z,22.20
2022-09-20T18:39:28.970Z,22.30
2022-09-20T18:41:55.876Z,22.30
2022-09-20T18:44:23.525Z,22.30
2022-09-20T18:46:53.391Z,22.40
2022-09-20T18:49:21.516Z,22.30
2022-09-20T18:51:49.264Z,22.40
2022-09-20T18:54:19.728Z,22.40
2022-09-20T18:56:48.891Z,22.30
2022-09-20T18:59:27.068Z,22.30
2022-09-20T19:02:06.748Z,22.30
2022-09-20T19:05:06.788Z,22.30
2022-09-20T19:07:40.486Z,22.30
2022-09-20T19:10:19.401Z,22.30
2022-09-20T19:12:56.766Z,22.20
2022-09-20T19:15:45.260Z,22.20
2022-09-20T19:18:35.609Z,22.20
2022-09-20T19:21:11.796Z,22.30
2022-09-20T19:24:02.385Z,22.30
2022-09-20T19:26:32.278Z,22.30
2022-09-20T19:29:00.685Z,22.30
2022-09-20T19:31:30.253Z,22.30
2022-09-20T19:33:59.562Z,22.30
2022-09-20T19:36:39.571Z,22.20
2022-09-20T19:39:43.395Z,22.20
2022-09-20T19:42:19.955Z,22.20
2022-09-20T19:45:10.992Z,22.20
2022-09-20T19:48:12.645Z,22.20
2022-09-20T19:50:46.427Z,22.10
2022-09-20T19:53:19.158Z,22.10
2022-09-20T19:56:11.823Z,22.10
2022-09-20T19:58:40.147Z,22.10
2022-09-20T20:01:09.080Z,22.00
2022-09-20T20:03:36.367Z,22.00
2022-09-20T20:06:30.610Z,22.00
2022-09-20T20:09:20.536Z,22.00
2022-09-20T20:12:08.457Z,22.00
2022-09-20T20:15:02.129Z,21.90
2022-09-20T20:17:47.744Z,21.90
2022-09-20T20:20:21.188Z,21.90
2022-09-20T20:23:20.404Z,21.90
2022-09-20T20:26:09.993Z,21.90
2022-09-20T20:28:38.240Z,21.90
2022-09-20T20:31:06.331Z,21.90
2022-09-20T20:33:33.529Z,21.90
2022-09-20T20:36:02.218Z,21.90
2022-09-20T20:38:36.781Z,21.90
2022-09-20T20:41:10.418Z,21.90
2022-09-20T20:43:39.585Z,21.90
2022-09-20T20:46:12.237Z,21.90
2022-09-20T20:48:39.027Z,21.80
2022-09-20T20:51:09.688Z,21.90
2022-09-20T20:53:45.240Z,21.80
2022-09-20T20:56:14.938Z,21.80
2022-09-20T20:58:43.248Z,21.80
2022-09-20T21:01:11.334Z,21.80
2022-09-20T21:03:39.740Z,21.80
2022-09-20T21:06:07.031Z,21.80
2022-09-20T21:08:48.999Z,21.80
2022-09-20T21:11:19.776Z,21.80
2022-09-20T21:13:49.216Z,21.80
2022-09-20T21:16:18.665Z,21.70
2022-09-20T21:18:47.378Z,21.70
2022-09-20T21:21:33.260Z,21.70
2022-09-20T21:24:03.970Z,21.70
2022-09-20T21:26:32.209Z,21.70
2022-09-20T21:29:07.746Z,21.70
2022-09-20T21:31:37.087Z,21.70
2022-09-20T21:34:11.357Z,21.70
2022-09-20T21:36:41.311Z,21.70
2022-09-20T21:39:08.568Z,21.70
2022-09-20T21:41:37.549Z,21.70
2022-09-20T21:44:05.769Z,21.70
2022-09-20T21:46:40.610Z,21.70
2022-09-20T21:49:09.930Z,21.70
2022-09-20T21:51:38.095Z,21.70
2022-09-20T21:54:05.419Z,21.70
2022-09-20T21:56:34.575Z,21.70
2022-09-20T21:59:03.755Z,21.70
2022-09-20T22:01:35.701Z,21.70
2022-09-20T22:04:08.318Z,21.60
2022-09-20T22:06:40.358Z,21.70
2022-09-20T22:09:15.400Z,21.70
2022-09-20T22:11:47.374Z,21.70
2022-09-20T22:14:17.375Z,21.60
2022-09-20T22:16:45.236Z,21.70
2022-09-20T22:19:14.698Z,21.70
2022-09-20T22:21:43.660Z,21.70
2022-09-20T22:24:11.924Z,21.60
2022-09-20T22:26:50.403Z,21.60
2022-09-20T22:29:18.217Z,21.70
2022-09-20T22:31:46.923Z,21.70
2022-09-20T22:34:19.115Z,21.60
2022-09-20T22:36:46.415Z,21.60
2022-09-20T22:39:13.801Z,21.60
2022-09-20T22:41:41.453Z,21.60
2022-09-20T22:44:08.768Z,21.60
2022-09-20T22:46:35.878Z,21.60
2022-09-20T22:49:05.724Z,21.50
2022-09-20T22:51:33.406Z,21.50
2022-09-20T22:54:04.255Z,21.50
2022-09-20T22:56:31.685Z,21.50
2022-09-20T22:59:05.058Z,21.50
2022-09-20T23:01:37.842Z,21.50
2022-09-20T23:04:10.032Z,21.50
2022-09-20T23:06:39.420Z,21.40
2022-09-20T23:09:08.715Z,21.40
2022-09-20T23:11:35.944Z,21.40
2022-09-20T23:14:07.870Z,21.40
2022-09-20T23:16:36.373Z,21.40
2022-09-20T23:19:04.843Z,21.40
2022-09-20T23:21:32.542Z,21.40
2022-09-20T23:24:04.547Z,21.40
2022-09-20T23:26:33.392Z,21.40
2022-09-20T23:29:02.601Z,21.40
2022-09-20T23:31:30.709Z,21.40
2022-09-20T23:34:02.274Z,21.40
2022-09-20T23:36:32.548Z,21.40
2022-09-20T23:38:59.827Z,21.40
2022-09-20T23:41:28.456Z,21.40
2022-09-20T23:43:55.652Z,21.40
2022-09-20T23:46:25.405Z,21.40
2022-09-20T23:48:52.647Z,21.40
2022-09-20T23:51:23.643Z,21.40
2022-09-20T23:53:51.511Z,21.40
2022-09-20T23:56:19.059Z,21.40
2022-09-20T23:58:46.651Z,21.40
